createdAt,value
2019-03-17T00:02:13.898Z,8.40
2019-03-17T00:04:46.782Z,8.30
2019-03-17T00:07:17.839Z,8.30
2019-03-17T00:09:48.676Z,8.30
2019-03-17T00:12:19.717Z,8.30
2019-03-17T00:15:04.253Z,8.20
2019-03-17T00:17:25.226Z,8.40
2019-03-17T00:19:56.320Z,8.40
2019-03-17T00:22:27.257Z,8.30
2019-03-17T00:25:08.996Z,8.40
2019-03-17T00:27:33.982Z,8.40
2019-03-17T00:30:06.931Z,8.30
2019-03-17T00:32:37.768Z,8.30
2019-03-17T00:35:08.551Z,8.30
2019-03-17T00:37:39.384Z,8.30
2019-03-17T00:40:11.275Z,8.20
2019-03-17T00:42:43.261Z,8.20
2019-03-17T00:45:14.283Z,8.20
2019-03-17T00:47:45.240Z,8.20
2019-03-17T00:50:16.281Z,8.20
2019-03-17T00:52:47.322Z,8.30
2019-03-17T00:55:18.260Z,8.20
2019-03-17T00:57:49.199Z,8.20
2019-03-17T01:00:20.137Z,8.20
2019-03-17T01:02:51.072Z,8.20
2019-03-17T01:05:22.015Z,8.20
2019-03-17T01:07:53.026Z,8.30
2019-03-17T01:10:23.858Z,8.30
2019-03-17T01:12:54.802Z,8.20
2019-03-17T01:15:25.765Z,8.10
2019-03-17T01:17:57.011Z,8.10
2019-03-17T01:20:28.583Z,8.10
2019-03-17T01:23:00.524Z,8.10
2019-03-17T01:25:31.941Z,8.10
2019-03-17T01:28:03.414Z,8.20
2019-03-17T01:30:36.459Z,8.10
2019-03-17T01:33:07.864Z,8.10
2019-03-17T01:35:39.318Z,8.10
2019-03-17T01:38:10.637Z,8.20
2019-03-17T01:40:41.990Z,8.20
2019-03-17T01:43:13.240Z,8.30
2019-03-17T01:45:44.549Z,8.20
2019-03-17T01:48:15.843Z,8.20
2019-03-17T01:50:47.565Z,8.20
2019-03-17T01:53:18.904Z,8.30
2019-03-17T01:55:50.176Z,8.20
2019-03-17T01:58:21.493Z,8.40
2019-03-17T02:00:52.716Z,8.20
2019-03-17T02:03:24.335Z,8.20
2019-03-17T02:05:55.768Z,8.30
2019-03-17T02:08:26.731Z,8.40
2019-03-17T02:10:57.817Z,8.30
2019-03-17T02:13:29.734Z,8.40
2019-03-17T02:16:01.248Z,8.30
2019-03-17T02:18:32.611Z,8.30
2019-03-17T02:21:03.572Z,8.30
2019-03-17T02:23:34.795Z,8.30
2019-03-17T02:26:05.752Z,8.40
2019-03-17T02:28:37.613Z,8.40
2019-03-17T02:31:08.553Z,8.30
2019-03-17T02:33:40.489Z,8.30
2019-03-17T02:36:11.349Z,8.30
2019-03-17T02:38:42.288Z,8.40
2019-03-17T02:41:14.147Z,8.30
2019-03-17T02:43:46.122Z,8.20
2019-03-17T02:46:17.027Z,8.20
2019-03-17T02:48:47.992Z,8.30
2019-03-17T02:51:19.030Z,8.20
2019-03-17T02:53:50.994Z,8.20
2019-03-17T02:56:21.935Z,8.10
2019-03-17T02:58:52.868Z,8.20
2019-03-17T03:01:23.810Z,8.20
2019-03-17T03:03:56.172Z,8.00
2019-03-17T03:06:27.118Z,7.90
2019-03-17T03:08:57.948Z,8.00
2019-03-17T03:11:28.761Z,7.90
2019-03-17T03:14:00.725Z,7.80
2019-03-17T03:16:31.789Z,8.00
2019-03-17T03:19:02.626Z,8.00
2019-03-17T03:21:33.531Z,8.00
2019-03-17T03:24:04.504Z,8.00
2019-03-17T03:26:35.426Z,8.00
2019-03-17T03:29:06.480Z,8.00
2019-03-17T03:31:38.545Z,8.10
2019-03-17T03:34:09.485Z,8.00
2019-03-17T03:36:40.499Z,8.10
2019-03-17T03:39:11.564Z,8.00
2019-03-17T03:41:43.529Z,7.90
2019-03-17T03:44:14.462Z,8.00
2019-03-17T03:46:45.403Z,8.10
2019-03-17T03:49:16.351Z,8.10
2019-03-17T03:51:48.610Z,8.20
2019-03-17T03:54:19.549Z,8.10
2019-03-17T03:56:50.488Z,8.10
2019-03-17T03:59:21.424Z,8.00
2019-03-17T04:01:53.203Z,8.10
2019-03-17T04:04:24.091Z,8.10
2019-03-17T04:06:55.061Z,8.10
2019-03-17T04:09:25.893Z,8.00
2019-03-17T04:11:56.851Z,8.00
2019-03-17T04:14:27.771Z,8.00
2019-03-17T04:16:58.706Z,8.00
2019-03-17T04:19:29.623Z,8.00
2019-03-17T04:22:01.684Z,7.90
2019-03-17T04:24:32.755Z,8.00
2019-03-17T04:27:04.643Z,7.90
2019-03-17T04:29:35.651Z,8.00
2019-03-17T04:32:07.717Z,8.00
2019-03-17T04:34:38.654Z,8.00
2019-03-17T04:37:09.592Z,8.10
2019-03-17T04:39:40.531Z,8.10
2019-03-17T04:42:12.597Z,8.00
2019-03-17T04:44:43.431Z,8.00
2019-03-17T04:47:14.369Z,8.00
2019-03-17T04:49:45.209Z,8.10
2019-03-17T04:52:17.139Z,8.10
2019-03-17T04:54:48.000Z,8.10
2019-03-17T04:57:18.915Z,8.20
2019-03-17T04:59:49.773Z,8.20
2019-03-17T05:02:20.919Z,8.20
2019-03-17T05:04:51.858Z,8.10
2019-03-17T05:07:22.642Z,8.20
2019-03-17T05:09:53.631Z,8.20
2019-03-17T05:12:24.569Z,8.20
2019-03-17T05:14:55.510Z,8.10
2019-03-17T05:17:26.344Z,8.00
2019-03-17T05:19:57.999Z,8.10
2019-03-17T05:22:28.937Z,8.00
2019-03-17T05:24:59.755Z,7.90
2019-03-17T05:27:30.817Z,7.80
2019-03-17T05:30:02.364Z,7.80
2019-03-17T05:32:33.281Z,7.70
2019-03-17T05:35:06.986Z,7.60
2019-03-17T05:37:37.458Z,7.40
2019-03-17T05:40:10.084Z,7.50
2019-03-17T05:42:41.279Z,7.50
2019-03-17T05:45:14.918Z,7.40
2019-03-17T05:47:45.790Z,7.30
2019-03-17T05:50:17.408Z,7.20
2019-03-17T05:52:48.267Z,7.30
2019-03-17T05:55:19.222Z,7.50
2019-03-17T05:57:50.150Z,7.50
2019-03-17T06:00:21.919Z,7.60
2019-03-17T06:02:52.860Z,7.70
2019-03-17T06:05:23.689Z,7.70
2019-03-17T06:07:54.512Z,7.70
2019-03-17T06:10:27.160Z,7.80
2019-03-17T06:12:58.039Z,7.80
2019-03-17T06:15:29.818Z,7.90
2019-03-17T06:18:00.713Z,8.00
2019-03-17T06:20:31.647Z,8.00
2019-03-17T06:23:02.582Z,8.00
2019-03-17T06:25:33.597Z,8.10
2019-03-17T06:28:04.488Z,8.10
2019-03-17T06:30:35.531Z,8.10
2019-03-17T06:33:06.449Z,8.20
2019-03-17T06:35:37.226Z,8.20
2019-03-17T06:38:08.245Z,8.30
2019-03-17T06:40:39.181Z,8.40
2019-03-17T06:43:10.121Z,8.60
2019-03-17T06:45:41.027Z,8.70
2019-03-17T06:48:11.998Z,8.80
2019-03-17T06:50:42.933Z,8.80
2019-03-17T06:53:13.744Z,8.90
2019-03-17T06:55:45.731Z,8.90
2019-03-17T06:58:16.669Z,8.90
2019-03-17T07:00:47.502Z,9.40
2019-03-17T07:03:18.416Z,10.50
2019-03-17T07:05:49.383Z,11.80
2019-03-17T07:08:20.294Z,12.10
2019-03-17T07:10:51.182Z,11.50
2019-03-17T07:13:22.094Z,12.10
2019-03-17T07:15:53.443Z,11.30
2019-03-17T07:18:24.792Z,10.60
2019-03-17T07:20:55.830Z,10.60
2019-03-17T07:23:26.769Z,11.80
2019-03-17T07:25:59.820Z,13.30
2019-03-17T07:28:30.698Z,14.60
2019-03-17T07:31:01.628Z,15.30
2019-03-17T07:33:32.903Z,15.90
2019-03-17T07:36:05.537Z,15.70
2019-03-17T07:38:36.494Z,16.50
2019-03-17T07:41:07.430Z,16.60
2019-03-17T07:43:38.369Z,17.00
2019-03-17T07:46:09.802Z,15.70
2019-03-17T07:48:40.730Z,14.20
2019-03-17T07:51:11.698Z,13.00
2019-03-17T07:53:42.747Z,12.20
2019-03-17T07:56:14.086Z,11.60
2019-03-17T07:58:45.002Z,11.40
2019-03-17T08:01:15.967Z,11.30
2019-03-17T08:03:46.900Z,11.40
2019-03-17T08:06:17.753Z,11.30
2019-03-17T08:08:48.762Z,11.30
2019-03-17T08:11:21.622Z,11.20
2019-03-17T08:13:53.049Z,11.60
2019-03-17T08:16:25.071Z,11.80
2019-03-17T08:18:55.986Z,12.20
2019-03-17T08:21:27.032Z,12.20
2019-03-17T08:23:58.997Z,14.50
2019-03-17T08:26:30.977Z,16.10
2019-03-17T08:29:03.704Z,16.60
2019-03-17T08:31:34.592Z,17.50
2019-03-17T08:34:05.531Z,18.30
2019-03-17T08:36:36.572Z,18.30
2019-03-17T08:39:08.576Z,18.80
2019-03-17T08:41:39.473Z,18.90
2019-03-17T08:44:11.011Z,18.80
2019-03-17T08:46:41.963Z,18.70
2019-03-17T08:49:12.901Z,19.20
2019-03-17T08:51:43.751Z,18.70
2019-03-17T08:54:14.748Z,18.70
2019-03-17T08:56:45.690Z,18.40
2019-03-17T08:59:16.574Z,18.60
2019-03-17T09:01:47.774Z,18.60
2019-03-17T09:04:19.847Z,19.50
2019-03-17T09:06:50.800Z,19.90
2019-03-17T09:09:21.756Z,18.90
2019-03-17T09:11:52.781Z,17.00
2019-03-17T09:14:24.743Z,16.00
2019-03-17T09:16:55.681Z,15.70
2019-03-17T09:19:26.624Z,14.50
2019-03-17T09:21:57.546Z,14.10
2019-03-17T09:24:28.905Z,13.80
2019-03-17T09:27:01.559Z,13.80
2019-03-17T09:29:32.417Z,13.40
2019-03-17T09:32:04.786Z,13.20
2019-03-17T09:34:36.751Z,13.50
2019-03-17T09:37:08.714Z,13.90
2019-03-17T09:39:39.523Z,13.30
2019-03-17T09:42:11.181Z,12.80
2019-03-17T09:44:44.371Z,12.80
2019-03-17T09:47:15.334Z,12.80
2019-03-17T09:49:46.269Z,12.80
2019-03-17T09:52:17.211Z,12.50
2019-03-17T09:54:49.566Z,12.50
2019-03-17T09:57:20.532Z,12.30
2019-03-17T09:59:51.444Z,12.30
2019-03-17T10:02:22.378Z,12.30
2019-03-17T10:04:53.337Z,12.20
2019-03-17T10:07:24.271Z,12.20
2019-03-17T10:09:55.301Z,12.10
2019-03-17T10:12:28.132Z,12.00
2019-03-17T10:14:59.237Z,12.00
2019-03-17T10:17:30.174Z,12.00
2019-03-17T10:20:01.088Z,12.00
2019-03-17T10:22:31.976Z,12.00
2019-03-17T10:25:02.991Z,12.00
2019-03-17T10:27:34.032Z,12.00
2019-03-17T10:30:20.817Z,12.00
2019-03-17T10:32:51.782Z,12.10
2019-03-17T10:35:23.130Z,12.10
2019-03-17T10:37:54.078Z,12.60
2019-03-17T10:40:25.004Z,12.80
2019-03-17T10:42:55.950Z,12.90
2019-03-17T10:45:27.602Z,13.10
2019-03-17T10:47:58.846Z,12.80
2019-03-17T10:50:29.782Z,12.70
2019-03-17T10:53:01.784Z,12.50
2019-03-17T10:55:34.089Z,12.20
2019-03-17T10:58:05.979Z,11.90
2019-03-17T11:00:36.915Z,11.60
2019-03-17T11:03:07.851Z,11.60
2019-03-17T11:05:40.920Z,11.60
2019-03-17T11:08:12.182Z,11.80
2019-03-17T11:10:43.524Z,11.80
2019-03-17T11:13:15.217Z,11.60
2019-03-17T11:15:46.341Z,11.50
2019-03-17T11:18:17.883Z,11.50
2019-03-17T11:20:49.232Z,11.30
2019-03-17T11:23:20.683Z,11.40
2019-03-17T11:25:52.444Z,11.30
2019-03-17T11:28:23.686Z,11.20
2019-03-17T11:30:58.935Z,11.10
2019-03-17T11:33:30.203Z,11.10
2019-03-17T11:36:01.295Z,11.10
2019-03-17T11:38:32.816Z,11.30
2019-03-17T11:41:05.239Z,11.30
2019-03-17T11:43:38.080Z,11.40
2019-03-17T11:46:09.330Z,11.60
2019-03-17T11:48:40.624Z,11.80
2019-03-17T11:51:11.969Z,11.80
2019-03-17T11:53:45.149Z,11.80
2019-03-17T11:56:16.475Z,12.00
2019-03-17T11:58:47.620Z,12.20
2019-03-17T12:01:19.046Z,12.30
2019-03-17T12:03:50.852Z,12.40
2019-03-17T12:06:22.279Z,12.40
2019-03-17T12:08:53.327Z,11.80
2019-03-17T16:43:03.084Z,7.20
2019-03-17T20:43:44.104Z,4.10
2019-03-17T20:46:16.612Z,4.20
2019-03-17T20:48:49.137Z,4.10
2019-03-17T20:51:20.052Z,4.10
2019-03-17T20:53:54.152Z,3.90
2019-03-17T20:56:25.024Z,3.90
2019-03-17T20:58:55.964Z,3.90
2019-03-17T21:01:26.878Z,3.90
2019-03-17T21:04:00.052Z,3.90
2019-03-17T21:06:34.624Z,4.00
2019-03-17T21:09:08.184Z,3.90
2019-03-17T21:11:39.341Z,3.80
2019-03-17T21:14:11.278Z,3.80
2019-03-17T21:16:43.049Z,3.70
2019-03-17T21:19:14.419Z,3.70
2019-03-17T21:21:45.471Z,3.60
2019-03-17T21:24:18.435Z,3.70
2019-03-17T21:26:49.974Z,3.70
2019-03-17T21:29:21.511Z,3.70
2019-03-17T21:34:45.351Z,3.60
2019-03-17T21:37:16.596Z,3.50
2019-03-17T21:39:51.446Z,3.50
2019-03-17T21:42:22.378Z,3.50
2019-03-17T21:45:03.023Z,3.50
2019-03-17T21:47:40.604Z,3.50
2019-03-17T21:50:21.885Z,3.60
2019-03-17T21:52:53.557Z,3.70
2019-03-17T21:55:25.098Z,3.60
2019-03-17T21:57:56.324Z,3.60
2019-03-17T22:00:29.458Z,3.60
2019-03-17T22:03:00.481Z,3.50
2019-03-17T22:05:31.569Z,3.50
2019-03-17T22:08:02.688Z,3.50
2019-03-17T22:10:35.332Z,3.40
2019-03-17T22:13:06.746Z,3.50
2019-03-17T22:15:38.028Z,3.50
2019-03-17T22:18:09.492Z,3.50
2019-03-17T22:20:42.379Z,3.60
2019-03-17T22:23:13.889Z,3.50
2019-03-17T22:25:45.468Z,3.60
2019-03-17T22:28:16.557Z,3.70
2019-03-17T22:30:48.552Z,3.70
2019-03-17T22:33:19.832Z,3.70
2019-03-17T22:35:51.110Z,3.70
2019-03-17T22:38:22.135Z,3.70
2019-03-17T22:40:54.457Z,3.70
2019-03-17T22:43:25.732Z,3.70
2019-03-17T22:45:57.414Z,3.70
2019-03-17T22:48:30.226Z,3.70
2019-03-17T22:51:02.114Z,3.70
2019-03-17T22:53:33.081Z,3.70
2019-03-17T22:56:04.424Z,3.60
2019-03-17T22:58:35.591Z,3.60
2019-03-17T23:01:07.425Z,3.60
2019-03-17T23:03:38.963Z,3.60
2019-03-17T23:06:11.369Z,3.60
2019-03-17T23:08:42.939Z,3.60
2019-03-17T23:11:14.432Z,3.70
2019-03-17T23:13:45.587Z,3.70
2019-03-17T23:16:17.125Z,3.70
2019-03-17T23:18:48.177Z,3.70
2019-03-17T23:21:19.398Z,3.70
2019-03-17T23:23:51.983Z,3.60
2019-03-17T23:26:22.940Z,3.70
2019-03-17T23:28:53.876Z,3.70
2019-03-17T23:31:25.942Z,3.80
2019-03-17T23:33:56.777Z,3.70
2019-03-17T23:36:27.718Z,3.70
2019-03-17T23:38:58.657Z,3.70
2019-03-17T23:41:30.924Z,3.70
2019-03-17T23:44:01.843Z,3.70
2019-03-17T23:46:32.798Z,3.70
2019-03-17T23:49:03.738Z,3.70
2019-03-17T23:51:36.841Z,3.70
2019-03-17T23:54:07.576Z,3.70
2019-03-17T23:56:38.494Z,3.60
2019-03-17T23:59:09.507Z,3.60
